createdAt,value
2018-11-06T00:00:19.838Z,5.56
2018-11-06T00:02:52.839Z,5.64
2018-11-06T00:05:21.966Z,5.63
2018-11-06T00:07:50.665Z,5.51
2018-11-06T00:10:19.332Z,5.76
2018-11-06T00:12:48.054Z,5.50
2018-11-06T00:15:16.798Z,5.36
2018-11-06T00:17:45.791Z,5.35
2018-11-06T00:20:15.841Z,5.37
2018-11-06T00:22:44.796Z,5.34
2018-11-06T00:25:14.423Z,5.50
2018-11-06T00:27:43.535Z,5.31
2018-11-06T00:30:13.629Z,5.14
2018-11-06T00:32:43.078Z,5.10
2018-11-06T00:35:12.891Z,5.04
2018-11-06T00:37:42.810Z,4.98
2018-11-06T00:40:11.413Z,4.84
2018-11-06T00:42:40.291Z,4.77
2018-11-06T00:45:11.925Z,4.71
2018-11-06T00:47:41.098Z,4.70
2018-11-06T00:50:11.442Z,4.77
2018-11-06T00:52:41.492Z,4.85
2018-11-06T00:55:10.743Z,4.68
2018-11-06T00:57:41.555Z,4.64
2018-11-06T01:00:12.839Z,4.86
2018-11-06T01:02:41.965Z,4.80
2018-11-06T01:05:11.831Z,4.75
2018-11-06T01:07:40.570Z,4.71
2018-11-06T01:10:10.322Z,4.55
2018-11-06T01:12:39.741Z,4.43
2018-11-06T01:15:10.714Z,4.36
2018-11-06T01:17:39.890Z,4.61
2018-11-06T01:20:11.479Z,4.63
2018-11-06T01:22:40.377Z,4.65
2018-11-06T01:25:09.976Z,4.78
2018-11-06T01:27:39.463Z,4.96
2018-11-06T01:30:11.306Z,4.90
2018-11-06T01:32:40.729Z,4.83
2018-11-06T01:35:10.557Z,4.63
2018-11-06T01:37:39.202Z,4.67
2018-11-06T01:40:10.100Z,2.73
2018-11-06T01:42:39.240Z,4.71
2018-11-06T01:45:10.019Z,4.59
2018-11-06T01:47:38.933Z,4.34
2018-11-06T01:50:09.230Z,4.20
2018-11-06T01:52:38.163Z,4.23
2018-11-06T01:55:08.455Z,4.18
2018-11-06T01:57:37.547Z,4.17
2018-11-06T02:00:08.469Z,4.15
2018-11-06T02:02:37.359Z,4.16
2018-11-06T02:05:07.062Z,4.25
2018-11-06T02:07:35.983Z,4.40
2018-11-06T02:10:04.710Z,4.36
2018-11-06T02:12:33.564Z,4.14
2018-11-06T02:15:02.637Z,4.05
2018-11-06T02:17:31.601Z,4.04
2018-11-06T02:20:00.616Z,4.10
2018-11-06T02:22:29.734Z,4.09
2018-11-06T02:24:58.842Z,3.99
2018-11-06T02:27:27.611Z,3.88
2018-11-06T02:29:56.794Z,3.93
2018-11-06T02:32:25.825Z,3.99
2018-11-06T02:34:54.456Z,4.14
2018-11-06T02:37:23.380Z,4.10
2018-11-06T02:39:51.982Z,3.96
2018-11-06T02:42:20.869Z,4.05
2018-11-06T02:44:49.962Z,4.10
2018-11-06T02:47:19.023Z,4.08
2018-11-06T02:49:47.958Z,4.17
2018-11-06T02:52:17.524Z,4.06
2018-11-06T02:54:46.257Z,3.89
2018-11-06T02:57:15.098Z,3.76
2018-11-06T02:59:44.144Z,3.79
2018-11-06T03:02:13.092Z,3.81
2018-11-06T03:04:41.818Z,3.85
2018-11-06T03:07:10.662Z,3.84
2018-11-06T03:09:39.442Z,3.69
2018-11-06T03:12:08.247Z,3.74
2018-11-06T03:14:37.654Z,3.70
2018-11-06T03:17:06.990Z,3.93
2018-11-06T03:19:35.827Z,3.89
2018-11-06T03:22:05.050Z,3.82
2018-11-06T03:24:33.789Z,3.80
2018-11-06T03:27:02.585Z,3.73
2018-11-06T03:29:31.349Z,3.83
2018-11-06T03:31:59.986Z,3.79
2018-11-06T03:34:28.651Z,3.70
2018-11-06T03:36:57.721Z,3.86
2018-11-06T03:39:26.458Z,3.84
2018-11-06T03:41:55.502Z,3.61
2018-11-06T03:44:24.703Z,3.70
2018-11-06T03:46:53.425Z,3.47
2018-11-06T03:49:22.282Z,3.43
2018-11-06T03:51:52.528Z,3.42
2018-11-06T03:54:21.452Z,3.45
2018-11-06T03:56:50.442Z,3.63
2018-11-06T03:59:19.894Z,3.64
2018-11-06T04:01:48.819Z,3.51
2018-11-06T04:04:17.819Z,3.43
2018-11-06T04:06:46.517Z,3.51
2018-11-06T04:09:15.167Z,2.65
2018-11-06T04:11:43.894Z,3.49
2018-11-06T04:14:12.635Z,3.50
2018-11-06T04:16:41.498Z,3.50
2018-11-06T04:19:10.715Z,3.55
2018-11-06T04:21:40.457Z,3.54
2018-11-06T04:24:10.943Z,3.44
2018-11-06T04:26:40.346Z,3.24
2018-11-06T04:29:10.195Z,3.21
2018-11-06T04:31:40.180Z,3.09
2018-11-06T04:34:09.545Z,3.06
2018-11-06T04:36:38.194Z,3.05
2018-11-06T04:39:10.238Z,3.11
2018-11-06T04:41:39.372Z,3.03
2018-11-06T04:44:08.784Z,3.10
2018-11-06T04:46:37.508Z,3.05
2018-11-06T04:49:07.020Z,3.03
2018-11-06T04:51:36.243Z,3.01
2018-11-06T04:54:05.158Z,2.98
2018-11-06T04:56:33.867Z,3.00
2018-11-06T04:59:02.983Z,3.06
2018-11-06T05:01:32.042Z,2.98
2018-11-06T05:04:00.965Z,2.93
2018-11-06T05:06:29.734Z,3.03
2018-11-06T05:08:58.307Z,3.00
2018-11-06T05:11:27.098Z,2.95
2018-11-06T05:13:55.964Z,3.08
2018-11-06T05:16:24.807Z,3.09
2018-11-06T05:18:53.441Z,3.17
2018-11-06T05:21:22.609Z,3.15
2018-11-06T05:23:51.380Z,3.41
2018-11-06T05:26:20.369Z,3.34
2018-11-06T05:28:49.482Z,3.26
2018-11-06T05:31:18.249Z,3.28
2018-11-06T05:33:47.356Z,3.31
2018-11-06T05:36:16.191Z,3.29
2018-11-06T05:38:44.906Z,3.51
2018-11-06T05:41:13.967Z,3.51
2018-11-06T05:43:43.143Z,3.57
2018-11-06T05:46:12.115Z,3.50
2018-11-06T05:48:41.415Z,3.58
2018-11-06T05:51:10.758Z,3.63
2018-11-06T05:53:39.667Z,3.80
2018-11-06T05:56:08.805Z,4.01
2018-11-06T05:58:38.231Z,4.01
2018-11-06T06:01:07.211Z,3.99
2018-11-06T06:03:36.182Z,4.05
2018-11-06T06:06:05.158Z,4.12
2018-11-06T06:08:34.174Z,4.21
2018-11-06T06:11:03.090Z,4.29
2018-11-06T06:13:32.223Z,4.50
2018-11-06T06:16:01.155Z,4.65
2018-11-06T06:18:30.157Z,4.61
2018-11-06T06:20:59.281Z,4.74
2018-11-06T06:23:27.990Z,4.87
2018-11-06T06:25:57.347Z,5.09
2018-11-06T06:28:26.580Z,5.28
2018-11-06T06:30:55.761Z,5.46
2018-11-06T06:33:24.539Z,5.66
2018-11-06T06:35:53.369Z,5.89
2018-11-06T06:38:22.258Z,6.19
2018-11-06T06:40:51.285Z,6.40
2018-11-06T06:43:19.984Z,6.61
2018-11-06T06:45:49.003Z,6.79
2018-11-06T06:48:18.162Z,6.95
2018-11-06T06:50:47.018Z,6.98
2018-11-06T06:53:16.218Z,7.27
2018-11-06T06:55:45.230Z,7.47
2018-11-06T06:58:13.963Z,7.73
2018-11-06T07:00:43.043Z,7.82
2018-11-06T07:03:11.941Z,7.97
2018-11-06T07:05:40.607Z,8.01
2018-11-06T07:08:09.525Z,7.80
2018-11-06T07:10:38.163Z,8.05
2018-11-06T07:13:07.030Z,8.23
2018-11-06T07:15:36.200Z,8.40
2018-11-06T07:18:04.816Z,8.49
2018-11-06T07:20:33.672Z,8.50
2018-11-06T07:23:02.495Z,8.76
2018-11-06T07:25:31.463Z,8.64
2018-11-06T07:28:00.134Z,9.03
2018-11-06T07:30:29.068Z,9.16
2018-11-06T07:32:57.696Z,9.26
2018-11-06T07:35:26.435Z,9.43
2018-11-06T07:37:55.165Z,9.56
2018-11-06T07:40:23.828Z,9.51
2018-11-06T07:42:52.486Z,9.21
2018-11-06T07:45:22.183Z,9.53
2018-11-06T07:47:51.377Z,9.38
2018-11-06T07:50:20.480Z,9.57
2018-11-06T07:52:49.507Z,9.89
2018-11-06T07:55:19.390Z,10.14
2018-11-06T07:57:48.214Z,10.22
2018-11-06T08:00:20.446Z,10.25
2018-11-06T08:02:49.759Z,10.69
2018-11-06T08:05:18.971Z,10.31
2018-11-06T08:07:48.431Z,10.42
2018-11-06T08:10:17.150Z,10.61
2018-11-06T08:12:48.750Z,10.64
2018-11-06T08:15:17.934Z,10.92
2018-11-06T08:17:47.271Z,11.12
2018-11-06T08:20:16.439Z,11.39
2018-11-06T08:22:45.210Z,11.62
2018-11-06T08:25:15.131Z,11.41
2018-11-06T08:27:44.861Z,11.71
2018-11-06T08:30:14.308Z,11.95
2018-11-06T08:32:43.753Z,12.19
2018-11-06T08:35:14.011Z,12.23
2018-11-06T08:37:42.924Z,12.27
2018-11-06T08:40:13.112Z,12.14
2018-11-06T08:42:41.887Z,12.32
2018-11-06T08:45:12.557Z,12.65
2018-11-06T08:47:42.482Z,12.65
2018-11-06T08:50:13.934Z,12.87
2018-11-06T08:52:43.351Z,13.04
2018-11-06T08:55:13.458Z,13.71
2018-11-06T08:57:42.843Z,14.00
2018-11-06T09:00:14.371Z,14.10
2018-11-06T09:02:44.136Z,14.67
2018-11-06T09:05:14.087Z,15.36
2018-11-06T09:07:42.922Z,15.36
2018-11-06T09:10:13.019Z,14.31
2018-11-06T09:12:42.416Z,16.14
2018-11-06T09:15:13.987Z,16.86
2018-11-06T09:17:43.107Z,17.07
2018-11-06T09:20:13.152Z,17.03
2018-11-06T09:22:41.962Z,17.17
2018-11-06T09:25:13.455Z,17.66
2018-11-06T09:27:43.031Z,17.73
2018-11-06T09:30:15.914Z,17.78
2018-11-06T09:32:45.683Z,17.74
2018-11-06T09:35:14.827Z,17.63
2018-11-06T09:37:44.049Z,17.74
2018-11-06T09:40:15.652Z,17.91
2018-11-06T09:42:44.920Z,18.15
2018-11-06T09:45:14.347Z,18.40
2018-11-06T09:47:43.548Z,18.14
2018-11-06T09:50:14.276Z,18.44
2018-11-06T09:52:43.718Z,18.99
2018-11-06T09:55:12.648Z,18.89
2018-11-06T09:57:41.898Z,19.12
2018-11-06T10:00:12.971Z,19.65
2018-11-06T10:02:41.934Z,19.58
2018-11-06T10:05:11.673Z,19.81
2018-11-06T10:07:40.497Z,20.26
2018-11-06T10:10:12.519Z,20.23
2018-11-06T10:12:41.821Z,20.26
2018-11-06T10:15:12.862Z,20.58
2018-11-06T10:17:42.841Z,20.88
2018-11-06T10:20:12.431Z,21.08
2018-11-06T10:22:41.279Z,21.08
2018-11-06T10:25:10.122Z,20.95
2018-11-06T10:27:39.938Z,20.78
2018-11-06T10:30:18.502Z,20.67
2018-11-06T10:32:47.232Z,20.38
2018-11-06T10:35:16.239Z,20.18
2018-11-06T10:37:45.071Z,20.39
2018-11-06T10:40:17.763Z,20.16
2018-11-06T10:42:47.098Z,20.61
2018-11-06T10:45:16.158Z,20.74
2018-11-06T10:47:45.110Z,20.72
2018-11-06T10:50:14.905Z,20.79
2018-11-06T10:52:44.324Z,20.54
2018-11-06T10:55:13.494Z,20.91
2018-11-06T10:57:42.749Z,20.75
2018-11-06T11:00:17.776Z,20.97
2018-11-06T11:02:51.962Z,21.09
2018-11-06T11:05:22.519Z,21.42
2018-11-06T11:07:51.358Z,21.44
2018-11-06T11:10:20.164Z,21.54
2018-11-06T11:12:49.140Z,21.45
2018-11-06T11:15:18.209Z,21.73
2018-11-06T11:17:47.466Z,21.62
2018-11-06T11:20:16.557Z,21.35
2018-11-06T11:22:45.391Z,21.80
2018-11-06T11:25:15.578Z,21.96
2018-11-06T11:27:45.032Z,22.03
2018-11-06T11:30:15.088Z,22.55
2018-11-06T11:32:45.540Z,21.97
2018-11-06T11:35:14.738Z,22.28
2018-11-06T11:37:43.584Z,22.44
2018-11-06T11:40:14.793Z,22.07
2018-11-06T11:42:43.906Z,23.02
2018-11-06T11:45:13.867Z,22.36
2018-11-06T11:47:42.721Z,21.77
2018-11-06T11:50:12.671Z,22.28
2018-11-06T11:52:41.961Z,22.67
2018-11-06T11:55:10.978Z,22.71
2018-11-06T11:57:40.351Z,22.77
2018-11-06T12:00:11.619Z,23.12
2018-11-06T12:02:40.500Z,23.10
2018-11-06T12:05:09.927Z,23.39
2018-11-06T12:07:38.750Z,23.31
2018-11-06T12:10:08.675Z,23.19
2018-11-06T12:12:37.571Z,23.38
2018-11-06T12:15:08.866Z,23.63
2018-11-06T12:17:37.915Z,23.23
2018-11-06T12:20:07.732Z,23.64
2018-11-06T12:22:36.939Z,23.81
2018-11-06T12:25:06.495Z,24.03
2018-11-06T12:27:35.274Z,23.97
2018-11-06T12:30:04.105Z,23.72
2018-11-06T12:32:33.304Z,24.01
2018-11-06T12:35:02.557Z,24.46
2018-11-06T12:37:31.742Z,24.30
2018-11-06T12:40:00.511Z,23.99
2018-11-06T12:42:29.175Z,24.35
2018-11-06T12:44:58.355Z,24.28
2018-11-06T12:47:27.566Z,24.37
2018-11-06T12:49:56.832Z,24.47
2018-11-06T12:52:25.575Z,24.01
2018-11-06T12:54:54.672Z,24.43
2018-11-06T12:57:23.454Z,24.36
2018-11-06T12:59:52.714Z,24.26
2018-11-06T13:02:21.482Z,24.05
2018-11-06T13:04:50.271Z,24.62
2018-11-06T13:07:19.077Z,24.17
2018-11-06T13:09:48.061Z,24.76
2018-11-06T13:12:16.963Z,24.61
2018-11-06T13:14:45.948Z,24.33
2018-11-06T13:17:15.212Z,24.30
2018-11-06T13:19:44.291Z,24.37
2018-11-06T13:22:13.347Z,24.47
2018-11-06T13:24:42.386Z,24.33
2018-11-06T13:27:11.152Z,23.83
2018-11-06T13:29:40.203Z,23.77
2018-11-06T13:32:09.184Z,23.39
2018-11-06T13:34:38.202Z,22.84
2018-11-06T13:37:06.923Z,22.90
2018-11-06T13:39:35.635Z,23.32
2018-11-06T13:42:04.460Z,23.43
2018-11-06T13:44:33.830Z,23.34
2018-11-06T13:47:02.404Z,23.28
2018-11-06T13:49:31.347Z,23.20
2018-11-06T13:52:00.633Z,23.51
2018-11-06T13:54:29.499Z,23.09
2018-11-06T13:56:58.478Z,22.35
2018-11-06T13:59:27.423Z,22.35
2018-11-06T14:01:56.170Z,22.49
2018-11-06T14:04:25.194Z,21.96
2018-11-06T14:06:53.894Z,22.31
2018-11-06T14:09:22.549Z,22.20
2018-11-06T14:11:51.415Z,21.98
2018-11-06T14:14:20.363Z,21.98
2018-11-06T14:16:49.317Z,22.20
2018-11-06T14:19:18.245Z,21.87
2018-11-06T14:21:47.510Z,22.08
2018-11-06T14:24:16.354Z,21.45
2018-11-06T14:26:45.451Z,21.43
2018-11-06T14:29:14.532Z,20.93
2018-11-06T14:31:43.582Z,20.82
2018-11-06T14:34:12.579Z,20.68
2018-11-06T14:36:41.706Z,20.32
2018-11-06T14:39:10.651Z,19.86
2018-11-06T14:41:39.399Z,20.03
2018-11-06T14:44:08.407Z,19.69
2018-11-06T14:46:37.418Z,19.41
2018-11-06T14:49:06.631Z,18.86
2018-11-06T14:51:35.384Z,18.78
2018-11-06T14:54:04.417Z,18.16
2018-11-06T14:56:33.450Z,17.93
2018-11-06T14:59:02.407Z,17.77
2018-11-06T15:01:31.516Z,17.61
2018-11-06T15:04:00.501Z,16.98
2018-11-06T15:06:29.661Z,16.98
2018-11-06T15:08:58.427Z,16.76
2018-11-06T15:11:27.087Z,16.40
2018-11-06T15:13:55.887Z,16.04
2018-11-06T15:16:24.608Z,16.03
2018-11-06T15:18:53.824Z,15.88
2018-11-06T15:21:22.808Z,15.73
2018-11-06T15:23:51.844Z,15.54
2018-11-06T15:26:20.806Z,15.55
2018-11-06T15:28:49.619Z,15.12
2018-11-06T15:31:18.883Z,15.20
2018-11-06T15:33:47.958Z,15.02
2018-11-06T15:36:16.620Z,15.18
2018-11-06T15:38:45.280Z,15.11
2018-11-06T15:41:14.111Z,14.81
2018-11-06T15:43:42.776Z,14.75
2018-11-06T15:46:11.927Z,14.60
2018-11-06T15:48:40.901Z,14.53
2018-11-06T15:51:10.260Z,14.50
2018-11-06T15:53:39.407Z,14.32
2018-11-06T15:56:08.208Z,14.19
2018-11-06T15:58:37.328Z,14.06
2018-11-06T16:01:06.425Z,14.06
2018-11-06T16:03:35.248Z,13.88
2018-11-06T16:06:04.140Z,13.74
2018-11-06T16:08:32.776Z,13.82
2018-11-06T16:11:01.555Z,13.75
2018-11-06T16:13:30.447Z,13.75
2018-11-06T16:15:59.255Z,13.71
2018-11-06T16:18:28.073Z,13.65
2018-11-06T16:20:57.183Z,13.58
2018-11-06T16:23:25.916Z,13.40
2018-11-06T16:25:55.847Z,13.30
2018-11-06T16:28:24.770Z,13.41
2018-11-06T16:30:53.855Z,13.30
2018-11-06T16:33:22.594Z,13.43
2018-11-06T16:35:51.536Z,13.26
2018-11-06T16:38:20.499Z,13.38
2018-11-06T16:40:49.281Z,13.20
2018-11-06T16:43:18.007Z,13.15
2018-11-06T16:45:46.691Z,13.19
2018-11-06T16:48:15.673Z,13.20
2018-11-06T16:50:44.491Z,13.06
2018-11-06T16:53:13.429Z,13.11
2018-11-06T16:55:42.207Z,13.15
2018-11-06T16:58:11.316Z,13.10
2018-11-06T17:00:40.488Z,13.09
2018-11-06T17:03:09.635Z,12.97
2018-11-06T17:05:38.891Z,12.99
2018-11-06T17:08:07.928Z,13.07
2018-11-06T17:10:36.524Z,12.91
2018-11-06T17:13:05.620Z,12.93
2018-11-06T17:15:34.577Z,12.87
2018-11-06T17:18:03.469Z,12.88
2018-11-06T17:20:32.667Z,12.80
2018-11-06T17:23:01.439Z,12.82
2018-11-06T17:25:30.630Z,12.78
2018-11-06T17:27:59.565Z,12.82
2018-11-06T17:30:28.387Z,12.80
2018-11-06T17:32:57.375Z,12.71
2018-11-06T17:35:26.457Z,12.90
2018-11-06T17:37:55.261Z,12.84
2018-11-06T17:40:23.950Z,12.76
2018-11-06T17:42:52.947Z,12.80
2018-11-06T17:45:23.516Z,12.67
2018-11-06T17:47:52.162Z,12.66
2018-11-06T17:50:21.246Z,12.72
2018-11-06T17:52:49.948Z,12.73
2018-11-06T17:55:20.446Z,12.69
2018-11-06T17:57:48.995Z,12.59
2018-11-06T18:00:21.055Z,12.66
2018-11-06T18:02:49.902Z,12.51
2018-11-06T18:05:20.100Z,12.46
2018-11-06T18:07:48.869Z,12.55
2018-11-06T18:10:18.929Z,12.53
2018-11-06T18:12:48.219Z,12.51
2018-11-06T18:15:17.633Z,12.58
2018-11-06T18:17:46.684Z,12.65
2018-11-06T18:20:16.041Z,12.58
2018-11-06T18:22:45.450Z,12.60
2018-11-06T18:25:14.781Z,12.59
2018-11-06T18:27:43.531Z,12.57
2018-11-06T18:30:15.603Z,12.63
2018-11-06T18:32:44.673Z,12.58
2018-11-06T18:35:14.531Z,12.56
2018-11-06T18:37:43.426Z,12.56
2018-11-06T18:40:15.118Z,12.44
2018-11-06T18:42:44.922Z,12.37
2018-11-06T18:45:14.672Z,12.45
2018-11-06T18:47:43.738Z,12.42
2018-11-06T18:50:13.996Z,12.19
2018-11-06T18:52:44.179Z,12.40
2018-11-06T18:55:13.018Z,12.42
2018-11-06T18:57:42.177Z,12.38
2018-11-06T19:00:14.451Z,12.32
2018-11-06T19:02:44.421Z,12.45
2018-11-06T19:05:13.226Z,12.38
2018-11-06T19:07:42.303Z,12.38
2018-11-06T19:10:12.572Z,12.38
2018-11-06T19:12:41.554Z,12.48
2018-11-06T19:15:13.678Z,12.53
2018-11-06T19:17:43.043Z,12.45
2018-11-06T19:20:12.943Z,12.48
2018-11-06T19:22:41.779Z,12.46
2018-11-06T19:25:11.798Z,12.46
2018-11-06T19:27:41.106Z,12.39
2018-11-06T19:30:12.496Z,12.51
2018-11-06T19:32:41.411Z,12.27
2018-11-06T19:35:10.441Z,12.41
2018-11-06T19:37:39.434Z,12.42
2018-11-06T19:40:09.667Z,12.42
2018-11-06T19:42:39.454Z,12.42
2018-11-06T19:45:09.500Z,12.37
2018-11-06T19:47:38.442Z,12.46
2018-11-06T19:50:08.833Z,12.36
2018-11-06T19:52:38.371Z,12.29
2018-11-06T19:55:08.286Z,12.28
2018-11-06T19:57:37.068Z,12.30
2018-11-06T20:00:12.934Z,12.40
2018-11-06T20:02:43.101Z,12.41
2018-11-06T20:05:11.968Z,12.49
2018-11-06T20:07:41.681Z,12.34
2018-11-06T20:10:12.289Z,12.31
2018-11-06T20:12:42.038Z,12.29
2018-11-06T20:15:11.958Z,12.32
2018-11-06T20:17:41.842Z,12.27
2018-11-06T20:20:16.419Z,12.28
2018-11-06T20:22:45.490Z,12.25
2018-11-06T20:25:14.888Z,12.20
2018-11-06T20:27:44.245Z,12.35
2018-11-06T20:30:15.451Z,12.31
2018-11-06T20:32:44.848Z,12.23
2018-11-06T20:35:14.443Z,12.20
2018-11-06T20:37:43.273Z,12.22
2018-11-06T20:40:14.678Z,12.22
2018-11-06T20:42:44.111Z,12.10
2018-11-06T20:45:14.332Z,12.17
2018-11-06T20:47:43.613Z,12.23
2018-11-06T20:50:15.730Z,12.14
2018-11-06T20:52:44.869Z,12.02
2018-11-06T20:55:14.872Z,12.06
2018-11-06T20:57:43.604Z,12.05
2018-11-06T21:00:18.571Z,11.92
2018-11-06T21:02:48.243Z,11.60
2018-11-06T21:05:17.383Z,11.47
2018-11-06T21:07:46.625Z,11.46
2018-11-06T21:10:16.134Z,11.26
2018-11-06T21:12:45.187Z,11.10
2018-11-06T21:15:14.213Z,10.78
2018-11-06T21:17:43.526Z,10.37
2018-11-06T21:20:13.307Z,10.17
2018-11-06T21:22:42.302Z,10.14
2018-11-06T21:25:11.790Z,10.12
2018-11-06T21:27:40.897Z,9.87
2018-11-06T21:30:11.317Z,9.87
2018-11-06T21:32:41.381Z,9.83
2018-11-06T21:35:10.115Z,9.54
2018-11-06T21:37:39.220Z,9.62
2018-11-06T21:40:10.046Z,9.35
2018-11-06T21:42:39.434Z,9.49
2018-11-06T21:45:09.881Z,9.24
2018-11-06T21:47:38.591Z,9.39
2018-11-06T21:50:09.281Z,9.17
2018-11-06T21:52:38.419Z,9.06
2018-11-06T21:55:08.517Z,8.49
2018-11-06T21:57:37.465Z,8.94
2018-11-06T22:00:10.296Z,8.84
2018-11-06T22:02:39.234Z,8.82
2018-11-06T22:05:09.569Z,8.77
2018-11-06T22:07:38.411Z,8.81
2018-11-06T22:10:08.620Z,8.93
2018-11-06T22:12:37.382Z,8.74
2018-11-06T22:15:07.639Z,8.85
2018-11-06T22:17:36.890Z,8.55
2018-11-06T22:20:06.908Z,8.54
2018-11-06T22:22:35.590Z,8.54
2018-11-06T22:25:04.558Z,8.55
2018-11-06T22:27:33.770Z,8.57
2018-11-06T22:30:02.903Z,8.47
2018-11-06T22:32:32.176Z,8.38
2018-11-06T22:35:00.948Z,8.49
2018-11-06T22:37:29.756Z,8.26
2018-11-06T22:39:58.813Z,8.40
2018-11-06T22:42:27.719Z,8.18
2018-11-06T22:44:56.660Z,8.30
2018-11-06T22:47:25.584Z,8.27
2018-11-06T22:49:54.781Z,8.22
2018-11-06T22:52:23.743Z,8.21
2018-11-06T22:54:52.676Z,8.16
2018-11-06T22:57:21.611Z,8.17
2018-11-06T22:59:50.562Z,8.08
2018-11-06T23:02:19.310Z,7.99
2018-11-06T23:04:48.072Z,8.20
2018-11-06T23:07:22.024Z,7.96
2018-11-06T23:09:50.739Z,8.08
2018-11-06T23:12:19.765Z,8.00
2018-11-06T23:14:48.564Z,7.89
2018-11-06T23:17:17.651Z,7.81
2018-11-06T23:19:46.563Z,7.87
2018-11-06T23:22:15.155Z,7.72
2018-11-06T23:24:44.124Z,7.92
2018-11-06T23:27:13.192Z,7.81
2018-11-06T23:29:42.291Z,7.72
2018-11-06T23:32:11.007Z,7.59
2018-11-06T23:34:39.736Z,7.63
2018-11-06T23:37:08.418Z,7.63
2018-11-06T23:39:37.582Z,7.44
2018-11-06T23:42:06.785Z,7.42
2018-11-06T23:44:35.800Z,7.63
2018-11-06T23:47:04.998Z,7.63
2018-11-06T23:49:34.083Z,7.43
2018-11-06T23:52:03.050Z,7.46
2018-11-06T23:54:31.754Z,7.57
2018-11-06T23:57:00.952Z,7.35
2018-11-06T23:59:30.218Z,7.43
